Time;durP1;ratioP1;P1;durP2;ratioP2;P2;SDS_P1;SDS_P2;PMS_P1;PMS_P2;Temp;Humidity;BMP_temperature;BMP_pressure;BME280_temperature;BME280_humidity;BME280_pressure;Samples;Min_cycle;Max_cycle;Signal;HPM_P1;HPM_P2
2023/09/26 00:00:21;;;;;;;3.15;2.38;;;;;;;17.71;85.79;101457.53;5052576;28;20049;-73
2023/09/26 00:02:52;;;;;;;2.28;1.92;;;;;;;17.65;85.09;101455.19;5053175;28;20056;-72
2023/09/26 00:05:23;;;;;;;3.10;2.03;;;;;;;17.69;85.86;101458.97;5054433;28;20056;-72
2023/09/26 00:07:52;;;;;;;5.13;2.38;;;;;;;17.60;87.08;101459.69;5036289;28;20065;-72
2023/09/26 00:10:21;;;;;;;2.35;2.10;;;;;;;17.71;84.20;101459.47;5035693;28;20057;-72
2023/09/26 00:12:49;;;;;;;2.47;1.70;;;;;;;17.62;84.20;101462.16;5053880;28;20049;-72
2023/09/26 00:15:17;;;;;;;2.85;1.90;;;;;;;17.63;84.57;101457.41;5036220;28;20041;-72
2023/09/26 00:17:45;;;;;;;3.47;1.90;;;;;;;17.61;85.73;101457.75;5053887;28;20045;-72
2023/09/26 00:20:23;;;;;;;3.58;1.85;;;;;;;17.63;85.94;101457.41;5053532;28;20411;-72
2023/09/26 00:22:52;;;;;;;1.98;1.77;;;;;;;17.59;87.79;101459.97;5053342;28;20060;-72
2023/09/26 00:25:20;;;;;;;2.20;1.90;;;;;;;17.53;87.66;101463.97;5054022;28;20048;-72
2023/09/26 00:27:49;;;;;;;3.45;1.90;;;;;;;17.50;87.42;101461.81;5053324;28;20407;-72
2023/09/26 00:30:17;;;;;;;2.00;1.70;;;;;;;17.49;86.15;101463.75;5053670;28;20049;-72
2023/09/26 00:32:46;;;;;;;3.92;2.30;;;;;;;17.45;86.59;101469.09;5052960;28;20491;-72
2023/09/26 00:35:14;;;;;;;2.97;2.38;;;;;;;17.43;87.65;101463.06;5052746;28;20511;-72
2023/09/26 00:37:43;;;;;;;3.30;1.90;;;;;;;17.43;87.23;101467.75;5052161;28;20061;-72
2023/09/26 00:40:15;;;;;;;2.15;1.90;;;;;;;17.37;87.81;101467.03;5035771;28;20045;-72
2023/09/26 00:42:44;;;;;;;2.25;1.73;;;;;;;17.35;88.17;101463.75;5035921;28;20048;-72
2023/09/26 00:45:13;;;;;;;2.58;1.80;;;;;;;17.38;87.26;101467.84;5052070;28;20045;-72
2023/09/26 00:47:41;;;;;;;3.45;2.05;;;;;;;17.36;86.32;101470.94;5052613;28;20060;-72
2023/09/26 00:50:12;;;;;;;2.15;1.65;;;;;;;17.38;87.20;101468.69;5035324;28;20053;-72
2023/09/26 00:52:43;;;;;;;2.85;1.67;;;;;;;17.36;86.64;101456.28;5052774;28;20491;-73
2023/09/26 00:55:15;;;;;;;4.13;1.60;;;;;;;17.42;86.58;101455.88;5052966;28;20053;-72
2023/09/26 00:57:45;;;;;;;2.67;1.45;;;;;;;17.35;86.75;101462.94;5053040;28;20060;-73
2023/09/26 01:00:16;;;;;;;3.67;1.58;;;;;;;17.30;86.74;101459.13;5052488;28;20060;-73
2023/09/26 01:02:45;;;;;;;2.83;1.88;;;;;;;17.23;86.99;101463.41;5053195;28;20044;-72
2023/09/26 01:05:13;;;;;;;2.10;1.80;;;;;;;17.24;87.04;101460.34;5034476;28;20064;-72
2023/09/26 01:07:41;;;;;;;4.05;1.90;;;;;;;17.20;86.59;101467.59;5051304;28;20060;-72
2023/09/26 01:10:10;;;;;;;5.60;2.20;;;;;;;17.19;87.19;101457.66;5052608;28;20530;-72
2023/09/26 01:12:40;;;;;;;1.83;1.50;;;;;;;17.22;87.23;101461.78;5052454;28;20048;-72
2023/09/26 01:15:10;;;;;;;4.05;2.03;;;;;;;17.29;87.19;101463.03;5034318;28;20475;-72
2023/09/26 01:17:38;;;;;;;2.97;1.58;;;;;;;17.32;87.38;101461.59;5051063;28;20056;-73
2023/09/26 01:20:12;;;;;;;3.92;2.05;;;;;;;17.27;88.12;101461.69;5034936;28;20037;-72
2023/09/26 01:22:45;;;;;;;3.63;1.85;;;;;;;17.27;87.89;101461.69;5034987;28;20061;-72
2023/09/26 01:25:15;;;;;;;2.05;1.60;;;;;;;17.27;87.15;101468.06;5052238;28;20548;-72
2023/09/26 01:27:43;;;;;;;4.88;2.53;;;;;;;17.30;87.64;101458.31;5033946;28;20067;-72
2023/09/26 01:30:13;;;;;;;2.40;1.73;;;;;;;17.31;87.21;101454.44;5052341;28;20049;-72
2023/09/26 01:32:41;;;;;;;2.33;1.92;;;;;;;17.27;87.55;101459.75;5034253;28;20075;-72
2023/09/26 01:35:09;;;;;;;3.45;1.77;;;;;;;17.24;87.30;101452.03;5051753;28;20052;-72
2023/09/26 01:37:37;;;;;;;3.22;2.08;;;;;;;17.22;88.01;101453.47;5051710;28;20396;-72
2023/09/26 01:40:09;;;;;;;3.53;2.28;;;;;;;17.23;88.44;101455.94;5052556;28;20052;-72
2023/09/26 01:42:39;;;;;;;2.40;1.90;;;;;;;17.37;86.97;101453.22;5031406;28;20045;-72
2023/09/26 01:45:09;;;;;;;3.05;1.70;;;;;;;17.39;87.47;101453.72;5014826;28;20053;-72
2023/09/26 01:47:46;;;;;;;2.10;1.90;;;;;;;17.31;87.13;101454.44;5041121;28;20049;-72
2023/09/26 01:50:19;;;;;;;3.15;2.25;;;;;;;17.29;87.68;101456.66;5033926;28;20049;-72
2023/09/26 01:52:47;;;;;;;3.05;2.15;;;;;;;17.23;88.95;101444.03;5051770;28;20053;-72
2023/09/26 01:55:22;;;;;;;2.60;1.98;;;;;;;17.16;88.51;101448.03;5050899;28;20493;-72
2023/09/26 01:57:52;;;;;;;2.75;2.05;;;;;;;17.25;89.23;101448.16;5032586;28;20045;-72
2023/09/26 02:00:20;;;;;;;3.47;2.15;;;;;;;17.11;90.09;101452.84;5033799;28;20049;-73
2023/09/26 02:02:51;;;;;;;3.45;1.73;;;;;;;17.08;89.59;101448.75;5051529;28;20056;-73
2023/09/26 02:05:21;;;;;;;4.13;1.80;;;;;;;17.09;88.77;101439.31;5051444;28;20411;-72
2023/09/26 02:07:50;;;;;;;3.28;1.80;;;;;;;17.11;89.23;101450.06;5051720;28;20045;-72
2023/09/26 02:10:18;;;;;;;2.13;1.80;;;;;;;17.11;89.34;101452.84;5034134;28;20063;-72
2023/09/26 02:12:50;;;;;;;2.28;1.58;;;;;;;17.12;90.17;101441.47;5051490;28;20045;-72
2023/09/26 02:15:20;;;;;;;4.00;1.67;;;;;;;17.10;89.24;101446.47;5050762;28;20451;-72
2023/09/26 02:17:48;;;;;;;2.95;1.83;;;;;;;17.00;89.88;101452.97;5051156;28;20836;-72
2023/09/26 02:20:18;;;;;;;3.53;1.70;;;;;;;16.96;90.46;101448.38;5033544;28;20395;-73
2023/09/26 02:22:50;;;;;;;3.55;1.75;;;;;;;16.87;91.96;101443.50;5051291;28;20056;-73
2023/09/26 02:25:20;;;;;;;2.30;1.77;;;;;;;16.90;90.65;101437.38;5033238;28;20041;-72
2023/09/26 02:27:48;;;;;;;2.22;1.90;;;;;;;16.91;91.83;101440.97;5051114;28;20415;-72
2023/09/26 02:30:22;;;;;;;4.55;2.03;;;;;;;17.01;91.02;101440.78;5033591;28;20093;-72
2023/09/26 02:32:50;;;;;;;2.13;1.92;;;;;;;17.02;89.51;101438.84;5051099;28;20064;-72
2023/09/26 02:35:19;;;;;;;2.92;2.17;;;;;;;17.07;90.00;101438.81;5051371;28;20376;-73
2023/09/26 02:37:48;;;;;;;3.08;1.80;;;;;;;17.01;89.74;101438.03;5051081;28;20059;-72
2023/09/26 02:40:17;;;;;;;2.85;2.00;;;;;;;16.90;90.93;101431.88;5033370;28;20041;-72
2023/09/26 02:42:46;;;;;;;3.05;1.80;;;;;;;16.99;91.09;101439.44;5033108;28;20079;-72
2023/09/26 02:45:14;;;;;;;2.78;1.83;;;;;;;16.99;91.50;101437.53;5051256;28;20057;-72
2023/09/26 02:47:43;;;;;;;3.42;1.90;;;;;;;17.04;90.25;101436.63;5050016;28;20056;-72
2023/09/26 02:50:12;;;;;;;7.05;2.22;;;;;;;16.99;91.45;101439.44;5051591;28;20045;-72
2023/09/26 02:52:42;;;;;;;1.95;1.52;;;;;;;16.92;91.59;101435.13;5049506;28;20545;-72
2023/09/26 02:55:11;;;;;;;3.45;2.33;;;;;;;16.90;92.35;101426.34;5046087;28;20128;-72
2023/09/26 02:57:39;;;;;;;3.28;1.70;;;;;;;16.96;90.94;101431.78;5036678;28;20097;-72
2023/09/26 03:00:15;;;;;;;2.00;1.73;;;;;;;16.84;92.89;101427.53;5051450;28;20052;-73
2023/09/26 03:02:47;;;;;;;2.58;1.90;;;;;;;16.88;91.22;101431.34;5051083;28;20479;-72
2023/09/26 03:05:17;;;;;;;2.05;1.77;;;;;;;16.81;91.70;101421.81;5050633;28;20060;-72
2023/09/26 03:07:49;;;;;;;2.75;1.98;;;;;;;16.78;91.50;101426.00;5052951;28;20041;-72
2023/09/26 03:10:18;;;;;;;2.88;1.80;;;;;;;16.74;94.44;101419.41;5037575;28;20052;-72
2023/09/26 03:12:48;;;;;;;3.63;1.85;;;;;;;16.64;93.41;101412.94;5055311;28;20052;-72
2023/09/26 03:15:17;;;;;;;2.17;1.65;;;;;;;16.62;94.42;101415.16;5019585;28;20045;-72
2023/09/26 03:17:46;;;;;;;3.42;2.20;;;;;;;16.61;94.42;101413.53;5037460;28;20053;-72
2023/09/26 03:20:15;;;;;;;6.10;2.03;;;;;;;16.64;93.65;101415.72;5037352;28;20052;-72
2023/09/26 03:22:44;;;;;;;4.68;1.75;;;;;;;16.66;94.06;101409.84;5037300;28;20725;-72
2023/09/26 03:25:12;;;;;;;1.77;1.58;;;;;;;16.69;93.16;101405.66;5036973;28;20045;-72
2023/09/26 03:27:41;;;;;;;2.78;1.80;;;;;;;16.70;92.43;101404.53;5036842;28;20036;-72
2023/09/26 03:30:09;;;;;;;3.00;2.13;;;;;;;16.68;92.24;101409.56;5036842;28;20041;-72
2023/09/26 03:32:37;;;;;;;1.50;1.40;;;;;;;16.68;92.81;101412.31;5054965;28;20041;-72
2023/09/26 03:35:06;;;;;;;1.90;1.50;;;;;;;16.65;92.85;101425.63;5036920;28;20045;-72
2023/09/26 03:37:35;;;;;;;2.72;1.70;;;;;;;16.65;92.98;101420.09;5036405;28;20498;-72
2023/09/26 03:40:03;;;;;;;2.38;1.73;;;;;;;16.63;94.56;101425.09;5054782;28;20364;-72
2023/09/26 03:42:32;;;;;;;3.30;1.77;;;;;;;16.54;93.12;101413.09;5054648;28;20048;-72
2023/09/26 03:45:00;;;;;;;2.33;1.70;;;;;;;16.59;93.59;101414.94;5053773;28;20392;-72
2023/09/26 03:47:28;;;;;;;2.45;1.65;;;;;;;16.69;92.42;101416.72;5052868;28;20049;-72
2023/09/26 03:49:56;;;;;;;2.60;1.58;;;;;;;16.56;94.09;101405.31;5053659;28;20494;-72
2023/09/26 03:52:24;;;;;;;2.17;1.70;;;;;;;16.53;94.14;101411.47;5054605;28;20053;-72
2023/09/26 03:54:52;;;;;;;2.00;1.70;;;;;;;16.52;93.77;101404.28;5053415;28;20056;-72
2023/09/26 03:57:20;;;;;;;2.92;1.77;;;;;;;16.57;94.57;101417.19;5053941;28;20424;-72
2023/09/26 03:59:49;;;;;;;3.05;1.70;;;;;;;16.53;93.84;101408.69;5053938;28;20056;-72
2023/09/26 04:02:17;;;;;;;5.57;1.77;;;;;;;16.51;95.61;101413.69;5053497;28;20048;-73
2023/09/26 04:04:45;;;;;;;3.13;1.48;;;;;;;16.47;94.53;101410.69;5036148;28;20053;-73
2023/09/26 04:07:13;;;;;;;2.70;1.67;;;;;;;16.48;95.67;101415.09;5054052;28;20056;-72
2023/09/26 04:09:41;;;;;;;2.15;1.80;;;;;;;16.48;95.18;101408.78;5053151;28;20060;-72
2023/09/26 04:12:09;;;;;;;4.07;1.92;;;;;;;16.52;95.08;101416.16;5054407;28;20045;-72
2023/09/26 04:14:37;;;;;;;5.65;1.52;;;;;;;16.47;95.81;101416.22;5053162;28;20352;-72
2023/09/26 04:17:05;;;;;;;2.17;1.70;;;;;;;16.48;95.66;101408.78;5052619;28;20503;-72
2023/09/26 04:19:33;;;;;;;3.88;1.90;;;;;;;16.46;95.83;101416.53;5051673;28;20072;-72
2023/09/26 04:22:01;;;;;;;1.60;1.50;;;;;;;16.53;94.78;101408.69;5053677;28;20500;-72
2023/09/26 04:24:29;;;;;;;2.58;1.83;;;;;;;16.48;95.63;101406.81;5053773;28;20059;-73
2023/09/26 04:26:57;;;;;;;4.10;1.92;;;;;;;16.52;94.65;101410.63;5052435;28;20052;-72
2023/09/26 04:29:26;;;;;;;2.35;1.40;;;;;;;16.59;94.72;101403.91;5052906;28;20061;-72
2023/09/26 04:31:54;;;;;;;4.15;1.95;;;;;;;16.56;93.98;101399.78;5053465;28;20049;-72
2023/09/26 04:34:26;;;;;;;2.75;1.80;;;;;;;16.55;95.23;101398.16;5052671;28;20063;-73
2023/09/26 04:36:55;;;;;;;3.00;1.98;;;;;;;16.41;95.86;101391.75;5035978;28;20052;-73
2023/09/26 04:39:24;;;;;;;6.45;2.40;;;;;;;16.36;96.70;101396.22;5052056;28;20041;-72
2023/09/26 04:41:52;;;;;;;2.50;1.55;;;;;;;16.36;96.46;101393.47;5035736;28;20057;-72
2023/09/26 04:44:20;;;;;;;4.38;2.60;;;;;;;16.38;97.14;101396.75;5053588;28;20044;-71
2023/09/26 04:46:48;;;;;;;2.80;1.90;;;;;;;16.32;97.84;101395.19;5053177;28;20075;-71
2023/09/26 04:49:17;;;;;;;2.38;1.75;;;;;;;16.25;97.20;101401.09;5052084;28;20057;-71
2023/09/26 04:51:45;;;;;;;2.20;1.90;;;;;;;16.26;97.56;101401.91;5052426;28;20483;-71
2023/09/26 04:54:13;;;;;;;2.20;1.90;;;;;;;16.22;100.00;101401.69;5052970;28;20032;-71
2023/09/26 04:56:41;;;;;;;3.03;1.92;;;;;;;16.24;97.70;101393.91;5036323;28;20496;-71
2023/09/26 04:59:08;;;;;;;3.97;2.10;;;;;;;16.22;98.17;101411.91;5033339;28;20037;-71
2023/09/26 05:01:36;;;;;;;4.30;1.90;;;;;;;16.37;97.30;101397.03;5043657;28;20384;-75
2023/09/26 05:04:05;;;;;;;3.55;1.88;;;;;;;16.30;98.97;101414.00;5050467;28;20048;-77
2023/09/26 05:06:33;;;;;;;2.05;1.80;;;;;;;16.37;98.82;101408.91;5050851;28;20387;-77
2023/09/26 05:09:01;;;;;;;3.05;1.80;;;;;;;16.38;98.48;101405.03;5050995;28;20056;-77
2023/09/26 05:11:29;;;;;;;3.80;2.15;;;;;;;16.34;97.86;101405.94;5051090;28;20391;-78
2023/09/26 05:13:59;;;;;;;3.60;2.13;;;;;;;16.37;98.66;101403.41;5050144;28;20045;-77
2023/09/26 05:16:27;;;;;;;6.18;2.42;;;;;;;16.38;98.85;101407.78;5050863;28;20064;-77
2023/09/26 05:18:57;;;;;;;2.58;1.80;;;;;;;16.51;97.44;101416.44;5036384;28;20407;-77
2023/09/26 05:21:27;;;;;;;3.17;2.22;;;;;;;16.54;97.36;101418.63;5031373;28;20523;-76
2023/09/26 05:23:57;;;;;;;3.47;2.40;;;;;;;16.58;96.81;101408.63;5049425;28;20044;-77
2023/09/26 05:26:25;;;;;;;4.45;2.60;;;;;;;16.58;97.17;101408.63;5040909;28;20049;-76
2023/09/26 05:28:53;;;;;;;4.10;2.20;;;;;;;16.59;97.40;101417.72;5030767;28;20392;-76
2023/09/26 05:31:21;;;;;;;3.63;2.22;;;;;;;16.51;97.60;101425.56;5046637;28;20048;-76
2023/09/26 05:33:52;;;;;;;3.42;2.10;;;;;;;16.57;97.95;101411.69;5048767;28;20044;-76
2023/09/26 05:36:20;;;;;;;4.82;2.53;;;;;;;16.71;97.18;101417.25;5030787;28;20064;-77
2023/09/26 05:38:48;;;;;;;4.15;2.20;;;;;;;16.70;97.12;101423.88;5042955;28;20045;-77
2023/09/26 05:41:17;;;;;;;3.55;2.10;;;;;;;16.75;97.54;101416.34;5027795;28;20051;-76
2023/09/26 05:43:45;;;;;;;2.53;1.95;;;;;;;16.69;96.12;101416.72;5046227;28;20050;-77
2023/09/26 05:46:13;;;;;;;3.33;1.95;;;;;;;16.78;97.56;101423.22;5012937;28;20518;-79
2023/09/26 05:48:41;;;;;;;4.63;2.17;;;;;;;17.02;95.63;101422.28;5035330;28;20045;-79
2023/09/26 05:51:09;;;;;;;4.32;2.17;;;;;;;17.08;95.41;101428.53;5039279;28;20498;-80
2023/09/26 05:53:37;;;;;;;4.32;2.03;;;;;;;17.29;93.37;101424.28;5030945;28;20045;-79
2023/09/26 05:56:05;;;;;;;2.70;2.20;;;;;;;17.45;93.05;101424.81;5031700;28;20045;-80
2023/09/26 05:58:33;;;;;;;3.15;2.45;;;;;;;17.48;93.29;101417.84;5030387;28;20057;-79
2023/09/26 06:01:11;;;;;;;5.18;2.58;;;;;;;17.59;92.35;101429.53;5039580;28;20045;-79
2023/09/26 06:03:41;;;;;;;3.03;2.15;;;;;;;17.65;91.85;101431.06;5043818;28;20053;-79
2023/09/26 06:06:09;;;;;;;3.65;2.38;;;;;;;17.86;90.70;101434.25;5029556;28;20052;-79
2023/09/26 06:08:38;;;;;;;3.08;2.28;;;;;;;18.05;90.26;101435.25;5020651;28;20076;-79
2023/09/26 06:11:09;;;;;;;8.43;2.67;;;;;;;18.16;88.99;101435.88;5035257;28;20056;-80
2023/09/26 06:13:39;;;;;;;3.63;2.25;;;;;;;18.35;88.15;101438.50;5047624;28;20099;-80
2023/09/26 06:16:08;;;;;;;4.15;1.85;;;;;;;18.49;86.82;101444.84;5048980;28;20052;-79
2023/09/26 06:18:37;;;;;;;5.20;2.28;;;;;;;18.62;87.35;101443.13;5050430;28;20057;-80
2023/09/26 06:21:08;;;;;;;1.92;1.67;;;;;;;18.87;83.89;101445.59;5041871;28;20048;-80
2023/09/26 06:23:36;;;;;;;5.10;2.47;;;;;;;18.93;84.43;101438.78;5043648;28;20080;-80
2023/09/26 06:26:07;;;;;;;4.63;2.03;;;;;;;19.09;84.62;101444.78;5034892;28;20052;-80
2023/09/26 06:28:37;;;;;;;3.55;2.25;;;;;;;19.23;83.69;101443.88;5044525;28;20056;-81
2023/09/26 06:31:10;;;;;;;8.35;3.33;;;;;;;19.30;83.10;101445.06;5048294;28;20060;-80
2023/09/26 06:33:38;;;;;;;5.22;3.03;;;;;;;19.29;82.14;101440.66;5049068;28;20052;-82
2023/09/26 06:36:11;;;;;;;7.18;3.38;;;;;;;19.56;80.67;101447.13;5046030;28;20275;-81
2023/09/26 06:38:41;;;;;;;5.57;3.63;;;;;;;19.70;80.73;101441.47;5041634;28;20057;-80
2023/09/26 06:41:10;;;;;;;5.38;3.53;;;;;;;20.01;81.65;101453.69;5049465;28;20061;-81
2023/09/26 06:43:39;;;;;;;4.93;3.17;;;;;;;20.08;79.56;101445.69;5032508;28;20084;-81
2023/09/26 06:46:09;;;;;;;6.45;3.55;;;;;;;20.16;78.88;101451.56;5041868;28;20419;-81
2023/09/26 06:48:38;;;;;;;5.32;3.47;;;;;;;20.44;78.52;101456.84;5052813;28;20056;-81
2023/09/26 06:51:08;;;;;;;7.50;3.78;;;;;;;20.60;76.70;101448.84;5053073;28;20424;-81
2023/09/26 06:53:36;;;;;;;8.25;4.32;;;;;;;20.71;77.03;101444.56;5035037;28;20052;-81
2023/09/26 06:56:07;;;;;;;12.07;5.07;;;;;;;20.85;75.46;101454.72;5053214;28;20048;-81
2023/09/26 06:58:37;;;;;;;8.35;5.00;;;;;;;21.09;75.49;101451.41;5052574;28;20053;-81
2023/09/26 07:01:14;;;;;;;16.73;6.80;;;;;;;21.28;74.88;101450.22;5016216;28;20064;-81
2023/09/26 07:03:43;;;;;;;13.27;6.72;;;;;;;21.48;75.20;101443.09;5045493;28;20072;-82
2023/09/26 07:06:14;;;;;;;13.68;6.97;;;;;;;21.61;73.71;101449.63;5053238;28;20082;-82
2023/09/26 07:08:44;;;;;;;13.18;6.60;;;;;;;21.69;73.74;101454.31;5052137;28;20044;-82
2023/09/26 07:11:13;;;;;;;11.27;5.50;;;;;;;21.88;72.79;101447.53;5040127;28;20057;-82
2023/09/26 07:13:44;;;;;;;6.70;4.22;;;;;;;21.98;72.30;101451.88;5033312;28;20053;-81
2023/09/26 07:16:16;;;;;;;4.88;3.58;;;;;;;22.01;71.53;101438.09;5033120;28;20072;-82
2023/09/26 07:18:45;;;;;;;5.28;3.33;;;;;;;22.22;72.07;101445.69;5033573;28;20056;-82
2023/09/26 07:21:15;;;;;;;8.32;3.28;;;;;;;22.45;72.01;101444.50;5045868;28;20059;-82
2023/09/26 07:23:43;;;;;;;7.07;2.50;;;;;;;22.53;71.80;101452.03;5030331;28;20139;-82
2023/09/26 07:26:14;;;;;;;5.35;3.08;;;;;;;22.71;69.41;101451.84;5033909;28;20057;-82
2023/09/26 07:28:45;;;;;;;2.90;2.17;;;;;;;23.06;70.01;101448.72;5033399;28;20072;-82
2023/09/26 07:31:15;;;;;;;4.05;2.60;;;;;;;23.26;67.93;101444.22;5033592;28;20068;-82
2023/09/26 07:33:47;;;;;;;5.45;3.10;;;;;;;23.35;67.53;101453.38;5033867;28;20049;-82
2023/09/26 07:36:15;;;;;;;5.50;3.28;;;;;;;23.49;66.41;101450.25;5033542;28;20053;-82
2023/09/26 07:38:44;;;;;;;4.38;3.15;;;;;;;23.66;65.26;101455.94;5033090;28;20053;-82
2023/09/26 07:41:13;;;;;;;7.63;3.38;;;;;;;23.76;63.72;101447.91;5033772;28;20057;-82
2023/09/26 07:43:41;;;;;;;7.07;3.67;;;;;;;23.93;62.98;101450.78;5034457;28;20060;-82
2023/09/26 07:46:10;;;;;;;4.68;3.35;;;;;;;24.09;61.47;101457.34;5033313;28;20053;-82
2023/09/26 07:48:42;;;;;;;6.32;3.65;;;;;;;24.11;60.81;101460.63;5033663;28;20060;-82
2023/09/26 07:51:12;;;;;;;6.35;3.65;;;;;;;24.20;59.10;101454.88;5033208;28;20049;-84
2023/09/26 07:53:43;;;;;;;3.97;3.00;;;;;;;24.36;58.88;101454.13;5032206;28;20045;-82
2023/09/26 07:56:11;;;;;;;6.72;4.20;;;;;;;24.41;58.71;101453.88;5032758;28;20237;-83
2023/09/26 07:58:40;;;;;;;4.68;3.30;;;;;;;24.57;57.62;101453.94;5031622;28;20049;-82
2023/09/26 08:01:09;;;;;;;4.65;3.60;;;;;;;24.45;57.17;101454.00;5049172;28;20052;-81
2023/09/26 08:03:43;;;;;;;6.63;4.15;;;;;;;24.58;57.97;101457.56;5051214;28;20392;-82
2023/09/26 08:06:13;;;;;;;8.55;3.20;;;;;;;24.76;59.00;101455.25;5051364;28;20060;-83
2023/09/26 08:08:42;;;;;;;6.68;3.10;;;;;;;24.94;59.15;101445.41;5050952;28;20053;-83
2023/09/26 08:11:11;;;;;;;7.68;2.72;;;;;;;25.17;59.93;101447.59;5051377;28;20112;-83
2023/09/26 08:13:40;;;;;;;6.20;3.13;;;;;;;25.19;56.53;101452.84;5050973;28;20056;-83
2023/09/26 08:16:10;;;;;;;3.30;2.83;;;;;;;25.12;58.81;101449.88;5051357;28;20050;-83
2023/09/26 08:18:39;;;;;;;5.70;3.00;;;;;;;24.98;60.53;101436.31;5050975;28;20069;-83
2023/09/26 08:21:08;;;;;;;9.20;2.80;;;;;;;24.85;60.64;101444.78;5051091;28;20045;-82
2023/09/26 08:23:37;;;;;;;3.83;2.28;;;;;;;25.11;61.08;101437.84;5051229;28;20049;-82
2023/09/26 08:26:10;;;;;;;4.82;3.20;;;;;;;25.27;59.78;101439.84;5051698;28;20045;-83
2023/09/26 08:28:39;;;;;;;7.47;2.88;;;;;;;25.47;58.25;101433.16;5032553;28;20049;-83
2023/09/26 08:31:14;;;;;;;10.65;3.17;;;;;;;25.43;58.05;101443.47;5032046;28;20053;-82
2023/09/26 08:33:44;;;;;;;5.05;2.67;;;;;;;25.44;57.78;101436.69;5033212;28;20042;-83
2023/09/26 08:36:19;;;;;;;5.80;2.83;;;;;;;25.64;56.50;101439.59;5032522;28;20050;-84
2023/09/26 08:38:49;;;;;;;7.10;2.70;;;;;;;25.92;56.28;101440.63;5032504;28;20057;-83
2023/09/26 08:41:19;;;;;;;7.13;3.00;;;;;;;26.14;55.01;101439.13;5031859;28;20084;-84
2023/09/26 08:43:48;;;;;;;5.10;2.80;;;;;;;26.12;54.21;101428.28;5032411;28;20053;-83
2023/09/26 08:46:18;;;;;;;8.18;2.90;;;;;;;26.14;54.26;101439.13;5032099;28;20058;-83
2023/09/26 08:48:48;;;;;;;7.40;3.35;;;;;;;26.26;53.34;101436.22;5033265;28;20045;-83
2023/09/26 08:51:17;;;;;;;5.28;2.58;;;;;;;26.27;53.15;101443.47;5031966;28;20080;-83
2023/09/26 08:53:46;;;;;;;4.50;2.90;;;;;;;26.44;52.95;101430.16;5031589;28;20057;-83
2023/09/26 08:56:20;;;;;;;8.50;3.30;;;;;;;26.36;53.34;101440.44;5014759;28;20052;-83
2023/09/26 08:58:51;;;;;;;3.60;3.05;;;;;;;26.19;52.20;101441.63;5032908;28;20054;-83
2023/09/26 09:01:20;;;;;;;5.88;3.17;;;;;;;26.12;52.27;101438.69;5032465;28;20065;-83
2023/09/26 09:03:49;;;;;;;6.30;3.33;;;;;;;26.34;52.04;101444.78;5032124;28;20052;-83
2023/09/26 09:06:18;;;;;;;5.38;2.85;;;;;;;26.36;53.61;101442.44;5019187;28;20080;-83
2023/09/26 09:08:46;;;;;;;4.82;3.30;;;;;;;26.56;52.18;101440.44;5031099;28;20057;-83
2023/09/26 09:11:32;;;;;;;5.45;3.78;;;;;;;26.67;50.73;101437.84;5030230;28;20072;-83
2023/09/26 09:14:00;;;;;;;5.13;3.35;;;;;;;26.82;50.65;101424.88;5031209;28;20054;-83
2023/09/26 09:16:28;;;;;;;5.68;3.60;;;;;;;26.65;51.28;101428.97;5030950;28;20408;-82
2023/09/26 09:18:58;;;;;;;8.27;3.97;;;;;;;26.70;50.20;101434.28;5039779;28;20495;-83
2023/09/26 09:21:32;;;;;;;3.72;3.03;;;;;;;26.76;49.75;101429.19;5033106;28;20091;-83
2023/09/26 09:24:06;;;;;;;5.00;3.25;;;;;;;26.71;49.61;101424.69;5050693;28;20399;-83
2023/09/26 09:26:37;;;;;;;4.57;3.75;;;;;;;26.87;47.88;101420.97;5051205;28;20076;-82
2023/09/26 09:29:23;;;;;;;4.95;3.70;;;;;;;27.01;51.35;101415.66;5031210;28;20049;-82
2023/09/26 09:31:52;;;;;;;3.83;3.33;;;;;;;27.19;49.07;101413.16;5043968;28;20060;-82
2023/09/26 09:34:23;;;;;;;5.93;3.55;;;;;;;27.12;48.43;101403.78;5047526;28;20056;-82
2023/09/26 09:36:56;;;;;;;5.18;3.97;;;;;;;27.35;47.75;101401.78;5049908;28;20045;-83
2023/09/26 09:39:25;;;;;;;8.38;4.32;;;;;;;27.54;47.63;101399.22;5050876;28;20060;-83
2023/09/26 09:42:01;;;;;;;9.13;4.65;;;;;;;27.36;48.55;101394.97;5049268;28;20049;-83
2023/09/26 09:44:31;;;;;;;7.70;4.20;;;;;;;26.95;48.09;101384.25;5033022;28;20045;-82
2023/09/26 09:47:03;;;;;;;4.97;4.30;;;;;;;26.89;48.29;101390.53;5050583;28;20053;-85
2023/09/26 09:49:35;;;;;;;6.85;4.57;;;;;;;26.96;47.60;101380.25;5050787;28;20056;-84
2023/09/26 09:52:05;;;;;;;8.55;4.78;;;;;;;27.04;46.77;101386.81;5050073;28;20060;-87
2023/09/26 09:54:43;;;;;;;5.75;4.93;;;;;;;27.23;46.39;101385.13;5049617;28;20049;-82
2023/09/26 09:57:15;;;;;;;8.50;4.50;;;;;;;27.19;46.91;101378.63;5031654;28;20045;-82
2023/09/26 09:59:45;;;;;;;5.50;4.20;;;;;;;27.32;46.66;101377.22;5044787;28;20062;-85
2023/09/26 10:02:17;;;;;;;9.55;5.03;;;;;;;27.54;47.65;101369.13;5050439;28;20068;-83
2023/09/26 10:04:47;;;;;;;5.90;4.28;;;;;;;27.34;46.41;101377.69;5049771;28;20061;-85
2023/09/26 10:07:17;;;;;;;7.68;4.93;;;;;;;27.12;46.47;101367.28;5050700;28;20072;-85
2023/09/26 10:09:47;;;;;;;7.35;4.97;;;;;;;27.26;45.26;101366.69;5051116;28;20041;-83
2023/09/26 10:12:16;;;;;;;9.98;5.47;;;;;;;27.34;44.69;101372.06;5049922;28;20053;-84
2023/09/26 10:14:45;;;;;;;9.10;5.28;;;;;;;27.31;45.86;101375.59;5049343;28;20065;-83
2023/09/26 10:17:14;;;;;;;6.60;4.63;;;;;;;27.33;44.70;101359.19;5036583;28;20046;-85
2023/09/26 10:19:43;;;;;;;6.82;5.05;;;;;;;27.49;45.44;101350.59;5030039;28;20168;-83
2023/09/26 10:22:33;;;;;;;8.80;4.65;;;;;;;27.70;45.29;101359.75;5030224;28;20064;-83
2023/09/26 10:25:04;;;;;;;7.28;4.85;;;;;;;27.75;43.46;101359.41;5030290;28;20052;-85
2023/09/26 10:27:33;;;;;;;5.97;4.53;;;;;;;27.85;44.34;101360.78;5029729;28;20061;-85
2023/09/26 10:30:21;;;;;;;7.22;5.05;;;;;;;28.11;45.19;101356.28;5043266;28;20060;-84
2023/09/26 10:32:50;;;;;;;6.47;4.70;;;;;;;28.08;43.21;101368.28;5049029;28;20083;-84
2023/09/26 10:35:19;;;;;;;9.27;5.20;;;;;;;27.84;44.66;101373.19;5049174;28;20049;-86
2023/09/26 10:38:08;;;;;;;6.10;4.13;;;;;;;27.97;43.14;101362.53;5015480;28;20068;-83
2023/09/26 10:40:39;;;;;;;5.07;4.25;;;;;;;28.07;43.22;101359.03;5049271;28;20052;-83
2023/09/26 10:43:09;;;;;;;7.32;4.93;;;;;;;28.26;44.00;101357.28;5049331;28;20056;-84
2023/09/26 10:45:57;;;;;;;7.15;4.25;;;;;;;28.43;42.24;101351.03;5049375;28;20053;-84
2023/09/26 10:48:27;;;;;;;5.90;3.97;;;;;;;28.60;42.00;101348.81;5038453;28;20053;-82
2023/09/26 10:50:57;;;;;;;5.05;4.18;;;;;;;28.86;41.08;101355.50;5050217;28;20517;-82
2023/09/26 10:53:26;;;;;;;6.60;4.35;;;;;;;28.43;42.83;101345.41;5045257;28;20045;-82
2023/09/26 10:55:54;;;;;;;5.82;4.63;;;;;;;28.35;43.23;101349.34;5031565;28;20050;-85
2023/09/26 10:58:23;;;;;;;8.98;4.88;;;;;;;28.05;43.70;101344.53;5012679;28;20045;-88
2023/09/26 11:00:52;;;;;;;6.22;4.68;;;;;;;27.86;44.12;101335.06;5009981;28;20045;-86
2023/09/26 11:03:21;;;;;;;7.47;3.97;;;;;;;27.61;43.44;101331.94;5008632;28;20053;-92
2023/09/26 11:05:50;;;;;;;5.80;4.13;;;;;;;27.54;45.33;101324.16;5002307;28;20050;-88
2023/09/26 11:08:22;;;;;;;4.80;4.15;;;;;;;27.57;45.59;101317.78;4989350;28;20053;-85
2023/09/26 11:10:51;;;;;;;4.25;3.63;;;;;;;27.66;43.78;101322.34;4996779;28;20049;-86
2023/09/26 11:13:22;;;;;;;4.97;3.83;;;;;;;27.72;45.31;101324.44;5000748;28;20049;-85
2023/09/26 11:15:54;;;;;;;5.67;4.07;;;;;;;27.79;46.11;101298.41;4998134;28;20041;-85
2023/09/26 11:18:24;;;;;;;4.57;4.18;;;;;;;27.99;44.00;101315.13;4996606;28;20054;-86
2023/09/26 11:20:53;;;;;;;5.50;3.80;;;;;;;28.02;44.38;101312.34;4997192;28;20049;-87
2023/09/26 11:23:41;;;;;;;7.43;4.22;;;;;;;27.98;44.24;101307.88;4997921;28;20064;-87
2023/09/26 11:26:11;;;;;;;7.53;4.18;;;;;;;27.89;44.37;101306.19;4994994;28;20562;-85
2023/09/26 11:28:40;;;;;;;6.65;4.18;;;;;;;27.86;42.78;101300.53;4988515;28;20488;-86
2023/09/26 11:31:09;;;;;;;5.22;3.88;;;;;;;27.97;44.45;101306.28;4998172;28;20414;-86
2023/09/26 11:33:38;;;;;;;6.38;4.05;;;;;;;27.94;44.56;101307.06;5002983;28;20048;-86
2023/09/26 11:36:07;;;;;;;4.55;3.88;;;;;;;27.90;44.34;101310.63;4999987;28;20388;-86